Big Pine Key, Florida
Current Conditions -  °F | °C
As of 6:53 PM on Wednesday 28 Jan 2015 (Local Time) from KMTH Reporting Station
Clear Clear  
Wind Chill: 64°   Ceiling: Unl
Heat Index: 64°   Visibility: 10mi
Dew Point: 41°   Wind: 13mph
Humidity: 43%   Direction: 40°NE
Pressure: 30.15"   Gusts: NA
Location:  24.67°N, 81.35°W
Report Text: KMTH 282353Z AUTO 04011KT 10SM CLR 18/05 A3015 RMK AO2 SLP210 T01780050 10194 20172 53009
Loading
Personal Weather Stations






























Interactive Weather Map New forecast layout! Learn more

10-Day Weather Forecast

Advertisements
Track Severe Weather on mobile